Startpagina
METAR-TAF:

METAR-TAF

Vliegvelden :

Flughafen Münster-Osnabrück

Münster-Osnabrück, Duitsland

breedte: 52-08N, lengte: 007-42E, hoogte: 48 m

Actueel weer

Dit bericht is 19 minuten geleden gemaakt, om 19:20 UTC
Wind 3 kt uit het oostnoordoosten, variërend tussen het noordnoordoosten en het oosten
Temperatuur 14°C
Vochtigheid 58%
Druk 1024 hPa
Zicht 10 km of meer
geen wolken onder 1500 m en geen cumulonimbus

METAR: EDDG 181920Z 06003KT 030V090 CAVOK 14/06 Q1024 NOSIG

Tijdstip: 21:39 (19:39 UTC)

Verwachting

Dit bericht is 2 uur en het 39 minuten geleden gemaakt, om 17:00 UTC
Verwachting geldig van 18 om 18 UTC tot 19 om 18 UTC
Wind 4 kt uit het oostnoordoosten
Zicht 10 km of meer
geen wolken onder 1500 m en geen cumulonimbus
Wijzigt naar
van 19 om 08 UTC tot 19 om 11 UTC
Wind 9 kt uit het oosten

TAF: EDDG 181700Z 1818/1918 07004KT CAVOK BECMG 1908/1911 09009KT

Waarnemingen en weersverwachtingen van meer dan 4000 vliegvelden (METAR en TAF).

De beschikbare stations zijn de gele en rode punten op de kaart.

Ga met uw muis naar het station om de naam te zien.

Klik dan om waarnemingen en weersverwachtingen te zien.

kaart wijzigen: klik op de groene knoppen met een zwart kruis om in te zoomen, op de groene knop met een streepje om uit te zoomen of op de groene pijlen voor aangrenzende kaarten.


METAR-TAF: